EDDP/LEJ METAR and TAF weather

Enter ICAO airport designator
Station Type Date Time Source
EDDP METAR 2018/12/10 19:50 UTC NOAA

EDDP 101950Z 27017KT 9999 -SHRA SCT010CB BKN026 03/01 Q1013 TEMPO 27015G25KT


Station Type Date Time Source
EDDP Decoded METAR 2018/12/10 19:50 UTC NOAA

Leipzig-Schkeuditz, Germany (EDDP) 51-25N 012-14E 149M
Dec 10, 2018 - 02:50 PM EST / 2018.12.10 1950 UTC
Wind: from the W (270 degrees) at 20 MPH (17 KT):0
Visibility: greater than 7 mile(s):0
Sky conditions: mostly cloudy
Weather: light rain showers; Cumulonimbus clouds observed
Temperature: 37 F (3 C)
Dew Point: 33 F (1 C)
Relative Humidity: 86%
Pressure (altimeter): 29.91 in. Hg (1013 hPa)
ob: EDDP 101950Z 27017KT 9999 -SHRA SCT010CB BKN026 03/01 Q1013 TEMPO 27015G25KT
cycle: 20

Station Type Date Time Source
EDDP TAF 2018/12/10 18:27 UTC NOAA

TAF EDDP 101700Z 1018/1118 27015G25KT 9999 BKN035 PROB30
TEMPO 1018/1114 28020G30KT 4000 -SHRASN BKN012CB
BECMG 1110/1113 30013KT
TEMPO 1114/1118 4500 -RA BKN014


Example: see airport list